Time;durP1;ratioP1;P1;durP2;ratioP2;P2;SDS_P1;SDS_P2;PMS_P1;PMS_P2;Temp;Humidity;BMP_temperature;BMP_pressure;BME280_temperature;BME280_humidity;BME280_pressure;Samples;Min_cycle;Max_cycle;Signal;HPM_P1;HPM_P2
2023/08/25 00:01:47;;;;;;;;;;;20.80;99.90;;;;;;7609907;19;19959;-75
2023/08/25 00:04:20;;;;;;;;;;;20.80;99.90;;;;;;7614350;19;19919;-74
2023/08/25 00:06:52;;;;;;;;;;;20.60;99.90;;;;;;7607109;19;19922;-75
2023/08/25 00:09:24;;;;;;;;;;;20.60;99.90;;;;;;7616237;19;19922;-74
2023/08/25 00:11:56;;;;;;;;;;;20.50;99.90;;;;;;7611924;19;20002;-75
2023/08/25 00:14:28;;;;;;;;;;;20.60;99.90;;;;;;7612018;19;19931;-76
2023/08/25 00:17:01;;;;;;;;;;;20.60;99.90;;;;;;7606985;19;19922;-76
2023/08/25 00:19:33;;;;;;;;;;;20.60;99.90;;;;;;7613200;19;20287;-74
2023/08/25 00:22:05;;;;;;;;;;;20.60;99.90;;;;;;7608991;19;20036;-76
2023/08/25 00:24:37;;;;;;;;;;;20.60;99.90;;;;;;7611836;19;19923;-75
2023/08/25 00:27:09;;;;;;;;;;;20.60;99.90;;;;;;7607994;19;19918;-74
2023/08/25 00:29:41;;;;;;;;;;;20.50;99.90;;;;;;7610195;19;19918;-76
2023/08/25 00:32:13;;;;;;;;;;;20.50;99.90;;;;;;7611254;19;19919;-75
2023/08/25 00:34:45;;;;;;;;;;;20.40;99.90;;;;;;7610957;19;19943;-74
2023/08/25 00:37:18;;;;;;;;;;;20.40;99.90;;;;;;7607261;19;19923;-76
2023/08/25 00:39:50;;;;;;;;;;;20.40;99.90;;;;;;7619484;19;20000;-75
2023/08/25 00:42:22;;;;;;;;;;;20.30;99.90;;;;;;7615432;19;20335;-75
2023/08/25 00:44:54;;;;;;;;;;;20.40;99.90;;;;;;7615664;19;19914;-74
2023/08/25 00:47:27;;;;;;;;;;;20.40;99.90;;;;;;7615085;19;20509;-76
2023/08/25 00:49:59;;;;;;;;;;;20.30;99.90;;;;;;7611407;19;19911;-75
2023/08/25 00:52:31;;;;;;;;;;;20.30;99.90;;;;;;7618464;19;19971;-75
2023/08/25 00:55:05;;;;;;;;;;;20.30;99.90;;;;;;7616858;19;19923;-75
2023/08/25 00:57:38;;;;;;;;;;;20.30;99.90;;;;;;7614490;19;20540;-76
2023/08/25 01:00:11;;;;;;;;;;;20.40;99.90;;;;;;7602347;19;19923;-74
2023/08/25 01:02:44;;;;;;;;;;;20.30;99.90;;;;;;7620662;19;19943;-76
2023/08/25 01:05:16;;;;;;;;;;;20.40;99.90;;;;;;7610918;19;20542;-75
2023/08/25 01:07:48;;;;;;;;;;;20.40;99.90;;;;;;7619862;19;20337;-74
2023/08/25 01:10:25;;;;;;;;;;;20.30;99.90;;;;;;7616214;19;21139;-74
2023/08/25 01:13:05;;;;;;;;;;;20.40;99.90;;;;;;7613357;19;19915;-74
2023/08/25 01:15:38;;;;;;;;;;;20.30;99.90;;;;;;7611943;19;20005;-76
2023/08/25 01:18:15;;;;;;;;;;;20.30;99.90;;;;;;7611510;19;20385;-74
2023/08/25 01:20:48;;;;;;;;;;;20.30;99.90;;;;;;7617383;19;19923;-76
2023/08/25 01:23:43;;;;;;;;;;;20.30;99.90;;;;;;7612535;19;19931;-75
2023/08/25 01:26:16;;;;;;;;;;;20.40;99.90;;;;;;7610411;19;20353;-74
2023/08/25 01:28:49;;;;;;;;;;;20.40;99.90;;;;;;7616278;19;19922;-76
2023/08/25 01:31:21;;;;;;;;;;;20.40;99.90;;;;;;7612645;19;19950;-75
2023/08/25 01:33:55;;;;;;;;;;;20.50;99.90;;;;;;7613035;19;19943;-75
2023/08/25 01:36:35;;;;;;;;;;;20.40;99.90;;;;;;7605933;19;19927;-76
2023/08/25 01:39:13;;;;;;;;;;;20.40;99.90;;;;;;7610230;19;19923;-75
2023/08/25 01:41:46;;;;;;;;;;;20.50;99.90;;;;;;7613533;19;19961;-75
2023/08/25 01:44:19;;;;;;;;;;;20.50;99.90;;;;;;7611430;19;20009;-76
2023/08/25 01:46:55;;;;;;;;;;;20.50;99.90;;;;;;7610016;19;20379;-75
2023/08/25 01:49:28;;;;;;;;;;;20.50;99.90;;;;;;7615361;19;19978;-76
2023/08/25 01:52:01;;;;;;;;;;;20.60;99.90;;;;;;7612843;19;20861;-75
2023/08/25 01:54:36;;;;;;;;;;;20.60;99.90;;;;;;7613378;19;20002;-76
2023/08/25 01:57:09;;;;;;;;;;;20.70;99.90;;;;;;7608115;19;19932;-73
2023/08/25 01:59:41;;;;;;;;;;;20.80;99.90;;;;;;7603412;19;19929;-75
2023/08/25 02:02:14;;;;;;;;;;;20.80;99.90;;;;;;7602730;19;19933;-76
2023/08/25 02:04:46;;;;;;;;;;;20.80;99.90;;;;;;7610848;19;19981;-75
2023/08/25 02:07:18;;;;;;;;;;;20.90;99.90;;;;;;7608117;19;19922;-76
2023/08/25 02:09:53;;;;;;;;;;;21.00;99.90;;;;;;7611690;19;19969;-75
2023/08/25 02:12:27;;;;;;;;;;;21.10;99.90;;;;;;7606896;19;19918;-75
2023/08/25 02:14:59;;;;;;;;;;;21.20;99.90;;;;;;7607290;19;19955;-76
2023/08/25 02:17:31;;;;;;;;;;;21.30;99.90;;;;;;7611933;19;19918;-75
2023/08/25 02:20:04;;;;;;;;;;;21.40;99.90;;;;;;7608548;19;19930;-76
2023/08/25 02:22:37;;;;;;;;;;;21.50;99.90;;;;;;7611299;19;20364;-76
2023/08/25 02:25:13;;;;;;;;;;;21.50;99.90;;;;;;7618835;19;19922;-76
2023/08/25 02:27:46;;;;;;;;;;;21.60;99.90;;;;;;7614915;19;19956;-76
2023/08/25 02:30:18;;;;;;;;;;;21.60;99.90;;;;;;7603285;19;19918;-76
2023/08/25 02:32:50;;;;;;;;;;;21.70;99.90;;;;;;7467536;19;2762947;-76
2023/08/25 02:35:23;;;;;;;;;;;21.80;99.90;;;;;;7610511;19;19952;-76
2023/08/25 02:37:57;;;;;;;;;;;21.90;99.90;;;;;;7615472;19;19930;-76
2023/08/25 02:40:30;;;;;;;;;;;21.90;99.90;;;;;;7607342;19;20014;-75
2023/08/25 02:43:04;;;;;;;;;;;21.90;99.90;;;;;;7611388;19;19918;-75
2023/08/25 02:45:36;;;;;;;;;;;22.00;99.90;;;;;;7616617;19;19926;-75
2023/08/25 02:48:08;;;;;;;;;;;22.00;99.90;;;;;;7610597;19;19982;-74
2023/08/25 02:50:41;;;;;;;;;;;22.00;99.90;;;;;;7610444;19;19926;-77
2023/08/25 02:53:13;;;;;;;;;;;21.90;99.90;;;;;;7609027;19;21049;-74
2023/08/25 02:55:46;;;;;;;;;;;22.00;99.90;;;;;;7611961;19;20370;-75
2023/08/25 02:58:18;;;;;;;;;;;22.00;99.90;;;;;;7609417;19;19922;-74
2023/08/25 03:00:50;;;;;;;;;;;22.00;99.90;;;;;;7609433;19;19923;-76
2023/08/25 03:03:22;;;;;;;;;;;22.00;99.90;;;;;;7608864;19;19918;-74
2023/08/25 03:05:57;;;;;;;;;;;21.90;99.90;;;;;;7613842;19;20353;-76
2023/08/25 03:08:29;;;;;;;;;;;21.90;99.90;;;;;;7606147;19;19922;-76
2023/08/25 03:11:03;;;;;;;;;;;22.00;99.90;;;;;;7613227;19;19977;-76
2023/08/25 03:13:35;;;;;;;;;;;22.00;99.90;;;;;;7608426;19;19942;-76
2023/08/25 03:16:08;;;;;;;;;;;21.80;99.90;;;;;;7604144;19;19954;-76
2023/08/25 03:18:41;;;;;;;;;;;21.90;99.90;;;;;;7612974;19;19921;-77
2023/08/25 03:21:13;;;;;;;;;;;21.90;99.90;;;;;;7616907;19;20303;-76
2023/08/25 03:23:46;;;;;;;;;;;21.80;99.90;;;;;;7615694;19;19927;-76
2023/08/25 03:26:18;;;;;;;;;;;21.80;99.90;;;;;;7612787;19;19919;-75
2023/08/25 03:28:52;;;;;;;;;;;21.80;99.90;;;;;;7612389;19;19931;-75
2023/08/25 03:31:25;;;;;;;;;;;21.80;99.90;;;;;;7611355;19;19936;-74
2023/08/25 03:33:57;;;;;;;;;;;21.80;99.90;;;;;;7615019;19;19947;-76
2023/08/25 03:36:30;;;;;;;;;;;21.70;99.90;;;;;;7609775;19;19918;-76
2023/08/25 03:39:04;;;;;;;;;;;21.80;99.90;;;;;;7615644;19;19971;-75
2023/08/25 03:41:36;;;;;;;;;;;21.80;99.90;;;;;;7608849;19;19974;-75
2023/08/25 03:44:09;;;;;;;;;;;21.70;99.90;;;;;;7614794;19;19948;-75
2023/08/25 03:46:41;;;;;;;;;;;21.70;99.90;;;;;;7607887;19;19927;-75
2023/08/25 03:49:13;;;;;;;;;;;21.60;99.90;;;;;;7609641;19;19925;-77
2023/08/25 03:51:46;;;;;;;;;;;21.60;99.90;;;;;;7599589;19;19922;-76
2023/08/25 03:54:19;;;;;;;;;;;21.70;99.90;;;;;;7608500;19;19918;-77
2023/08/25 03:56:51;;;;;;;;;;;21.60;99.90;;;;;;7609943;19;19967;-77
2023/08/25 03:59:24;;;;;;;;;;;21.70;99.90;;;;;;7609305;19;19941;-77
2023/08/25 04:01:56;;;;;;;;;;;21.60;99.90;;;;;;7610417;19;19930;-75
2023/08/25 04:04:31;;;;;;;;;;;21.70;99.90;;;;;;7610723;19;19920;-75
2023/08/25 04:07:03;;;;;;;;;;;21.60;99.90;;;;;;7607903;19;19951;-76
2023/08/25 04:09:36;;;;;;;;;;;21.60;99.90;;;;;;7614366;19;19923;-73
2023/08/25 04:12:08;;;;;;;;;;;21.60;99.90;;;;;;7611976;19;19914;-76
2023/08/25 04:14:42;;;;;;;;;;;21.60;99.90;;;;;;7611272;19;19926;-76
2023/08/25 04:17:15;;;;;;;;;;;21.70;99.90;;;;;;7608162;19;19926;-76
2023/08/25 04:19:48;;;;;;;;;;;21.80;99.90;;;;;;7608938;19;19933;-76
2023/08/25 04:22:21;;;;;;;;;;;21.80;99.90;;;;;;7610206;19;19911;-77
2023/08/25 04:24:54;;;;;;;;;;;21.80;99.90;;;;;;7613361;19;19919;-75
2023/08/25 04:27:28;;;;;;;;;;;21.90;99.90;;;;;;7608699;19;19926;-75
2023/08/25 04:30:00;;;;;;;;;;;21.90;99.90;;;;;;7608316;19;19922;-76
2023/08/25 04:32:33;;;;;;;;;;;22.10;99.90;;;;;;7610830;19;20247;-77
2023/08/25 04:35:05;;;;;;;;;;;22.20;99.90;;;;;;7611072;19;20885;-77
2023/08/25 04:37:40;;;;;;;;;;;22.20;99.90;;;;;;7609098;19;19930;-75
2023/08/25 04:40:15;;;;;;;;;;;22.30;99.90;;;;;;7610543;19;19933;-75
2023/08/25 04:42:47;;;;;;;;;;;22.30;99.90;;;;;;7612272;19;19925;-76
2023/08/25 04:45:19;;;;;;;;;;;22.30;99.90;;;;;;7608319;19;19923;-75
2023/08/25 04:47:52;;;;;;;;;;;22.30;99.90;;;;;;7607949;19;19922;-75
2023/08/25 04:50:27;;;;;;;;;;;22.40;99.90;;;;;;7611571;19;19961;-76
2023/08/25 04:52:59;;;;;;;;;;;22.30;99.90;;;;;;7611469;19;20344;-76
2023/08/25 04:55:31;;;;;;;;;;;22.40;99.90;;;;;;7609273;19;20493;-76
2023/08/25 04:58:03;;;;;;;;;;;22.50;99.90;;;;;;7611590;19;19926;-76
2023/08/25 05:00:36;;;;;;;;;;;22.60;99.90;;;;;;7610428;19;19922;-75
2023/08/25 05:03:08;;;;;;;;;;;22.60;99.90;;;;;;7610426;19;19919;-76
2023/08/25 05:05:41;;;;;;;;;;;22.60;99.90;;;;;;7611168;19;19966;-75
2023/08/25 05:08:13;;;;;;;;;;;22.60;99.90;;;;;;7609735;19;19923;-75
2023/08/25 05:10:46;;;;;;;;;;;22.70;99.90;;;;;;7611482;19;19935;-76
2023/08/25 05:13:18;;;;;;;;;;;22.80;99.90;;;;;;7607434;19;19967;-76
2023/08/25 05:15:51;;;;;;;;;;;22.70;99.90;;;;;;7612228;19;19938;-76
2023/08/25 05:18:37;;;;;;;;;;;22.70;99.90;;;;;;7608972;19;19918;-75
2023/08/25 05:21:10;;;;;;;;;;;22.80;99.90;;;;;;7609745;19;20847;-76
2023/08/25 05:23:43;;;;;;;;;;;22.70;99.90;;;;;;7609990;19;20702;-76
2023/08/25 05:26:15;;;;;;;;;;;22.70;99.90;;;;;;7619711;19;20389;-75
2023/08/25 05:28:57;;;;;;;;;;;22.70;99.90;;;;;;7620936;19;19929;-75
2023/08/25 05:31:29;;;;;;;;;;;22.70;99.90;;;;;;7604842;19;19990;-75
2023/08/25 05:34:18;;;;;;;;;;;22.70;99.90;;;;;;7616123;19;20365;-75
2023/08/25 05:36:55;;;;;;;;;;;22.60;99.90;;;;;;7615467;19;19982;-75
2023/08/25 05:39:29;;;;;;;;;;;22.60;99.90;;;;;;7611501;19;19918;-75
2023/08/25 05:42:01;;;;;;;;;;;22.70;99.90;;;;;;7619743;19;20555;-73
2023/08/25 05:44:35;;;;;;;;;;;22.60;99.90;;;;;;7613626;19;19942;-75
2023/08/25 05:47:10;;;;;;;;;;;22.60;99.90;;;;;;7611458;19;19930;-76
2023/08/25 05:49:42;;;;;;;;;;;22.60;99.90;;;;;;7612638;19;19942;-76
2023/08/25 05:52:14;;;;;;;;;;;22.60;99.90;;;;;;7620114;19;19956;-76
2023/08/25 05:54:46;;;;;;;;;;;22.80;99.90;;;;;;7608482;19;20740;-76
2023/08/25 05:57:18;;;;;;;;;;;22.80;99.90;;;;;;7613398;19;19914;-77
2023/08/25 05:59:51;;;;;;;;;;;22.90;99.90;;;;;;7616786;19;20317;-74
2023/08/25 06:02:23;;;;;;;;;;;22.90;99.90;;;;;;7612481;19;20389;-75
2023/08/25 06:04:55;;;;;;;;;;;22.90;99.90;;;;;;7617820;19;19911;-76
2023/08/25 06:07:27;;;;;;;;;;;23.00;99.90;;;;;;7612086;19;19998;-74
2023/08/25 06:09:59;;;;;;;;;;;23.00;99.90;;;;;;7619393;19;20468;-75
2023/08/25 06:12:32;;;;;;;;;;;23.10;99.90;;;;;;7612337;19;19960;-74
2023/08/25 06:15:05;;;;;;;;;;;23.10;99.90;;;;;;7617420;19;19926;-75
2023/08/25 06:17:37;;;;;;;;;;;23.20;99.90;;;;;;7607632;19;19919;-75
2023/08/25 06:20:11;;;;;;;;;;;23.30;99.90;;;;;;7611783;19;19923;-75
2023/08/25 06:22:44;;;;;;;;;;;23.40;99.90;;;;;;7616514;19;19930;-77
2023/08/25 06:25:16;;;;;;;;;;;23.50;99.90;;;;;;7614988;19;19915;-74
2023/08/25 06:27:48;;;;;;;;;;;23.70;99.90;;;;;;7611379;19;19914;-73
2023/08/25 06:30:21;;;;;;;;;;;23.90;99.90;;;;;;7612970;19;20450;-75
2023/08/25 06:32:53;;;;;;;;;;;24.20;99.90;;;;;;7616840;19;20442;-73
2023/08/25 06:35:26;;;;;;;;;;;24.40;99.60;;;;;;7610440;19;21067;-74
2023/08/25 06:37:58;;;;;;;;;;;24.50;99.60;;;;;;7611992;19;20319;-74
2023/08/25 06:40:30;;;;;;;;;;;24.70;99.40;;;;;;7607308;19;19930;-74
2023/08/25 06:43:03;;;;;;;;;;;24.80;98.10;;;;;;7614549;19;19919;-75
2023/08/25 06:45:35;;;;;;;;;;;24.80;98.20;;;;;;7615466;19;19962;-73
2023/08/25 06:48:07;;;;;;;;;;;24.90;98.60;;;;;;7618368;19;19927;-74
2023/08/25 06:50:40;;;;;;;;;;;25.00;97.80;;;;;;7611860;19;19930;-74
2023/08/25 06:53:12;;;;;;;;;;;25.00;98.10;;;;;;7615352;19;19925;-74
2023/08/25 06:55:44;;;;;;;;;;;25.10;97.50;;;;;;7612583;19;19925;-73
2023/08/25 06:58:17;;;;;;;;;;;25.20;97.60;;;;;;7612770;19;19922;-73
2023/08/25 07:00:50;;;;;;;;;;;25.40;97.30;;;;;;7611731;19;19922;-74
2023/08/25 07:03:22;;;;;;;;;;;25.60;96.40;;;;;;7613725;19;19918;-73
2023/08/25 07:06:00;;;;;;;;;;;25.70;96.10;;;;;;7611031;19;19930;-73
2023/08/25 07:08:32;;;;;;;;;;;25.80;95.20;;;;;;7612423;19;20005;-76
2023/08/25 07:11:04;;;;;;;;;;;25.70;96.10;;;;;;7612453;19;19923;-75
2023/08/25 07:13:36;;;;;;;;;;;25.70;95.30;;;;;;7609652;19;19964;-74
2023/08/25 07:16:09;;;;;;;;;;;25.70;95.60;;;;;;7612875;19;21282;-74
2023/08/25 07:18:41;;;;;;;;;;;25.70;95.50;;;;;;7610187;19;19926;-75
2023/08/25 07:21:14;;;;;;;;;;;25.70;95.60;;;;;;7613771;19;21089;-74
2023/08/25 07:23:46;;;;;;;;;;;25.70;95.10;;;;;;7611570;19;20357;-74
2023/08/25 07:26:18;;;;;;;;;;;25.80;95.00;;;;;;7614799;19;19926;-74
2023/08/25 07:28:50;;;;;;;;;;;25.90;94.60;;;;;;7610995;19;19922;-75
2023/08/25 07:31:22;;;;;;;;;;;26.10;94.40;;;;;;7611984;19;19925;-74
2023/08/25 07:33:55;;;;;;;;;;;26.30;94.40;;;;;;7613353;19;19923;-75
2023/08/25 07:36:27;;;;;;;;;;;26.50;94.00;;;;;;7601553;19;19959;-74
2023/08/25 07:38:59;;;;;;;;;;;26.70;93.80;;;;;;7614579;19;20357;-74
2023/08/25 07:41:31;;;;;;;;;;;26.80;93.40;;;;;;7612546;19;19936;-73
2023/08/25 07:44:03;;;;;;;;;;;26.90;92.00;;;;;;7611995;19;20273;-75
2023/08/25 07:46:38;;;;;;;;;;;26.90;92.90;;;;;;7612508;19;19922;-74
2023/08/25 07:49:11;;;;;;;;;;;27.00;93.30;;;;;;7618634;19;19923;-74
2023/08/25 07:51:43;;;;;;;;;;;27.00;93.30;;;;;;7618355;19;19926;-76
2023/08/25 07:54:15;;;;;;;;;;;26.90;93.60;;;;;;7614847;19;21475;-74
2023/08/25 07:56:48;;;;;;;;;;;27.00;92.50;;;;;;7609676;19;20890;-73
2023/08/25 07:59:21;;;;;;;;;;;27.00;92.20;;;;;;7613973;19;19948;-75
2023/08/25 08:01:53;;;;;;;;;;;27.00;92.30;;;;;;7612269;19;19943;-75
2023/08/25 08:04:25;;;;;;;;;;;26.80;92.50;;;;;;7613523;19;20207;-75
2023/08/25 08:06:59;;;;;;;;;;;26.80;92.70;;;;;;7609186;19;19968;-74
2023/08/25 08:09:32;;;;;;;;;;;26.80;92.00;;;;;;7609088;19;19990;-74
2023/08/25 08:12:04;;;;;;;;;;;26.70;92.80;;;;;;7612301;19;20519;-74
2023/08/25 08:14:36;;;;;;;;;;;26.60;92.30;;;;;;7607096;19;20567;-73
2023/08/25 08:17:17;;;;;;;;;;;26.70;91.70;;;;;;7612319;19;20566;-76
2023/08/25 08:19:49;;;;;;;;;;;26.60;91.30;;;;;;7608013;19;19964;-75
2023/08/25 08:22:21;;;;;;;;;;;26.50;91.70;;;;;;7614650;19;19914;-74
2023/08/25 08:24:53;;;;;;;;;;;26.40;91.80;;;;;;7611997;19;20405;-74
2023/08/25 08:27:25;;;;;;;;;;;26.30;91.70;;;;;;7610812;19;20408;-75
2023/08/25 08:29:58;;;;;;;;;;;26.20;92.60;;;;;;7609544;19;19918;-74
2023/08/25 08:32:30;;;;;;;;;;;26.20;92.20;;;;;;7610961;19;19923;-75
2023/08/25 08:35:09;;;;;;;;;;;26.00;92.70;;;;;;7609864;19;19911;-74
2023/08/25 08:37:41;;;;;;;;;;;25.90;93.20;;;;;;7610568;19;19952;-74
2023/08/25 08:40:13;;;;;;;;;;;25.80;93.50;;;;;;7612133;19;20552;-75
2023/08/25 08:42:47;;;;;;;;;;;25.70;94.90;;;;;;7609247;19;19929;-76
2023/08/25 08:45:21;;;;;;;;;;;25.50;97.20;;;;;;7613829;19;19918;-75
2023/08/25 08:47:54;;;;;;;;;;;25.40;96.70;;;;;;7607800;19;19918;-75
2023/08/25 08:50:27;;;;;;;;;;;25.20;97.80;;;;;;7613039;19;19918;-74
2023/08/25 08:52:59;;;;;;;;;;;25.20;96.20;;;;;;7607936;19;19911;-76
2023/08/25 08:55:32;;;;;;;;;;;25.00;96.90;;;;;;7610288;19;19921;-74
2023/08/25 08:58:05;;;;;;;;;;;25.20;95.90;;;;;;7606667;19;19926;-75
2023/08/25 09:00:37;;;;;;;;;;;25.30;95.60;;;;;;7613544;19;20768;-76
2023/08/25 09:03:11;;;;;;;;;;;25.30;97.30;;;;;;7619350;19;19931;-77
2023/08/25 09:05:43;;;;;;;;;;;25.20;96.80;;;;;;7621516;19;20348;-77
2023/08/25 09:08:16;;;;;;;;;;;25.30;96.10;;;;;;7628690;19;20285;-77
2023/08/25 09:10:48;;;;;;;;;;;25.30;97.00;;;;;;7624373;19;19926;-75
2023/08/25 09:13:21;;;;;;;;;;;25.30;97.70;;;;;;7619445;19;19931;-77
2023/08/25 09:15:55;;;;;;;;;;;25.30;97.70;;;;;;7613838;19;19914;-76
2023/08/25 09:18:35;;;;;;;;;;;25.40;98.50;;;;;;7612261;19;19948;-75
2023/08/25 09:21:24;;;;;;;;;;;25.20;99.90;;;;;;7616137;19;19959;-75
2023/08/25 09:24:00;;;;;;;;;;;25.00;99.90;;;;;;7614410;19;19923;-77
2023/08/25 09:26:36;;;;;;;;;;;25.00;99.90;;;;;;7617877;19;19974;-76
2023/08/25 09:29:12;;;;;;;;;;;24.90;99.90;;;;;;7615981;19;19930;-77
2023/08/25 09:31:45;;;;;;;;;;;24.90;99.90;;;;;;7621705;19;19918;-76
2023/08/25 09:34:18;;;;;;;;;;;25.10;99.90;;;;;;7614705;19;19922;-76
2023/08/25 09:36:51;;;;;;;;;;;25.20;99.90;;;;;;7613343;19;19947;-76
2023/08/25 09:39:25;;;;;;;;;;;25.10;99.90;;;;;;7617883;19;19918;-75
2023/08/25 09:42:05;;;;;;;;;;;25.30;99.90;;;;;;7611349;19;19930;-75
2023/08/25 09:44:38;;;;;;;;;;;25.20;99.90;;;;;;7618734;19;19919;-76
2023/08/25 09:47:14;;;;;;;;;;;25.20;99.90;;;;;;7620145;19;19919;-75
2023/08/25 09:49:46;;;;;;;;;;;25.40;99.90;;;;;;7608110;19;19938;-75
2023/08/25 09:52:19;;;;;;;;;;;25.60;99.90;;;;;;7609177;19;20365;-76
2023/08/25 09:54:51;;;;;;;;;;;25.60;99.90;;;;;;7612177;19;19955;-76
2023/08/25 09:57:23;;;;;;;;;;;25.70;99.90;;;;;;7614668;19;19915;-76
2023/08/25 09:59:57;;;;;;;;;;;25.80;99.90;;;;;;7613911;19;19918;-75
2023/08/25 10:02:30;;;;;;;;;;;25.90;99.90;;;;;;7614265;19;19934;-76
2023/08/25 10:05:03;;;;;;;;;;;26.00;99.90;;;;;;7613119;19;19921;-76
2023/08/25 10:07:35;;;;;;;;;;;26.00;99.90;;;;;;7611078;19;19919;-76
2023/08/25 10:10:08;;;;;;;;;;;26.00;99.90;;;;;;7610941;19;19927;-77
2023/08/25 10:12:41;;;;;;;;;;;26.00;99.90;;;;;;7617925;19;19925;-75
2023/08/25 10:15:19;;;;;;;;;;;26.20;99.90;;;;;;7616322;19;19918;-76
2023/08/25 10:17:53;;;;;;;;;;;26.10;99.90;;;;;;7612827;19;19926;-76
2023/08/25 10:20:26;;;;;;;;;;;26.30;99.90;;;;;;7613677;19;19918;-74
2023/08/25 10:23:00;;;;;;;;;;;26.30;99.40;;;;;;7614707;19;19910;-74
2023/08/25 10:25:32;;;;;;;;;;;26.10;99.00;;;;;;7613372;19;19943;-73
2023/08/25 10:28:07;;;;;;;;;;;26.20;99.60;;;;;;7618941;19;19922;-75
2023/08/25 10:30:39;;;;;;;;;;;26.40;99.60;;;;;;7613939;19;20356;-74
2023/08/25 10:33:12;;;;;;;;;;;26.50;99.10;;;;;;7616374;19;19922;-75
2023/08/25 10:35:45;;;;;;;;;;;26.70;98.70;;;;;;7611333;19;20400;-73
2023/08/25 10:38:17;;;;;;;;;;;26.60;98.40;;;;;;7613791;19;19919;-74
2023/08/25 10:40:51;;;;;;;;;;;26.80;98.30;;;;;;7612346;19;20757;-75
2023/08/25 10:43:30;;;;;;;;;;;26.90;98.40;;;;;;7612378;19;20587;-75
2023/08/25 10:46:07;;;;;;;;;;;27.00;98.30;;;;;;7608577;19;19919;-74
2023/08/25 10:48:41;;;;;;;;;;;27.10;97.60;;;;;;7614914;19;19922;-73
2023/08/25 10:51:18;;;;;;;;;;;27.00;96.80;;;;;;7613210;19;19914;-74
2023/08/25 10:53:51;;;;;;;;;;;27.10;96.30;;;;;;7614681;19;19938;-75
2023/08/25 10:56:26;;;;;;;;;;;27.20;96.30;;;;;;7610186;19;19919;-73
2023/08/25 10:58:59;;;;;;;;;;;27.20;95.60;;;;;;7616550;19;19922;-73
2023/08/25 11:01:37;;;;;;;;;;;27.20;96.20;;;;;;7611555;19;21352;-75
2023/08/25 11:04:12;;;;;;;;;;;27.30;95.90;;;;;;7614087;19;20521;-75
2023/08/25 11:06:48;;;;;;;;;;;27.50;95.70;;;;;;7614957;19;19931;-75
2023/08/25 11:09:20;;;;;;;;;;;27.60;95.40;;;;;;7616515;19;19952;-74
2023/08/25 11:11:56;;;;;;;;;;;27.70;95.70;;;;;;7611830;19;19940;-75
2023/08/25 11:14:29;;;;;;;;;;;27.70;95.10;;;;;;7596223;19;20002;-73
2023/08/25 11:17:03;;;;;;;;;;;27.70;93.20;;;;;;7613212;19;20308;-74
2023/08/25 11:19:37;;;;;;;;;;;27.80;94.00;;;;;;7609728;19;19949;-74
2023/08/25 11:22:10;;;;;;;;;;;28.20;93.90;;;;;;7608261;19;19953;-74
2023/08/25 11:24:44;;;;;;;;;;;28.50;93.30;;;;;;7612137;19;19929;-75
2023/08/25 11:27:16;;;;;;;;;;;28.80;93.60;;;;;;7612150;19;20400;-73
2023/08/25 11:29:49;;;;;;;;;;;29.20;93.20;;;;;;7612588;19;19948;-74
2023/08/25 11:32:23;;;;;;;;;;;29.40;92.10;;;;;;7621322;19;19923;-75
2023/08/25 11:34:56;;;;;;;;;;;29.30;91.20;;;;;;7606669;19;20529;-75
2023/08/25 11:37:28;;;;;;;;;;;29.80;91.50;;;;;;7613326;19;20249;-75
2023/08/25 11:40:00;;;;;;;;;;;30.20;90.20;;;;;;7607246;19;19922;-75
2023/08/25 11:42:33;;;;;;;;;;;30.50;90.90;;;;;;7613171;19;19927;-76
2023/08/25 11:45:08;;;;;;;;;;;30.80;89.50;;;;;;7606117;19;19918;-74
2023/08/25 11:47:40;;;;;;;;;;;31.10;87.60;;;;;;7614201;19;19918;-75
2023/08/25 11:50:13;;;;;;;;;;;31.20;84.00;;;;;;7608793;19;19918;-74
2023/08/25 11:52:46;;;;;;;;;;;31.00;83.90;;;;;;7612734;19;20345;-75
2023/08/25 11:55:18;;;;;;;;;;;31.20;83.90;;;;;;7611039;19;19922;-75
2023/08/25 11:57:50;;;;;;;;;;;31.40;82.30;;;;;;7612049;19;19927;-75
2023/08/25 12:00:24;;;;;;;;;;;31.70;82.70;;;;;;7609588;19;19925;-75
2023/08/25 12:02:56;;;;;;;;;;;31.80;80.60;;;;;;7609137;19;19918;-75
2023/08/25 12:05:30;;;;;;;;;;;32.10;81.90;;;;;;7605828;19;19926;-75
2023/08/25 12:08:02;;;;;;;;;;;32.10;79.70;;;;;;7601211;19;21084;-74
2023/08/25 12:10:35;;;;;;;;;;;32.10;78.50;;;;;;7613892;19;19974;-76
2023/08/25 12:13:07;;;;;;;;;;;32.40;79.70;;;;;;7615144;19;19919;-74
2023/08/25 12:15:45;;;;;;;;;;;32.80;78.00;;;;;;7611336;19;19926;-76
2023/08/25 12:18:17;;;;;;;;;;;32.60;78.70;;;;;;7609122;19;20013;-76
2023/08/25 12:20:50;;;;;;;;;;;33.10;79.70;;;;;;7614520;19;19923;-75
2023/08/25 12:23:22;;;;;;;;;;;32.80;75.50;;;;;;7611730;19;20390;-75
2023/08/25 12:25:54;;;;;;;;;;;32.30;74.70;;;;;;7610467;19;20394;-74
2023/08/25 12:28:26;;;;;;;;;;;32.40;78.30;;;;;;7616794;19;19939;-75
2023/08/25 12:30:59;;;;;;;;;;;32.80;74.60;;;;;;7606335;19;19919;-76
2023/08/25 12:33:32;;;;;;;;;;;32.70;73.60;;;;;;7614982;19;19922;-76
2023/08/25 12:36:04;;;;;;;;;;;32.90;74.00;;;;;;7614510;19;19948;-76
2023/08/25 12:38:36;;;;;;;;;;;33.30;74.50;;;;;;7618293;19;19937;-75
2023/08/25 12:41:08;;;;;;;;;;;33.80;73.30;;;;;;7608948;19;19952;-75
2023/08/25 12:43:40;;;;;;;;;;;33.60;72.10;;;;;;7620690;19;19941;-76
2023/08/25 12:46:13;;;;;;;;;;;34.20;70.30;;;;;;7609344;19;20891;-75
2023/08/25 12:48:45;;;;;;;;;;;34.20;67.60;;;;;;7620657;19;19922;-76
2023/08/25 12:51:17;;;;;;;;;;;34.30;68.00;;;;;;7611893;19;19998;-75
2023/08/25 12:53:50;;;;;;;;;;;34.20;68.40;;;;;;7618592;19;19925;-76
2023/08/25 12:56:22;;;;;;;;;;;34.70;68.70;;;;;;7613798;19;20927;-76
2023/08/25 12:58:55;;;;;;;;;;;35.20;67.20;;;;;;7617969;19;19942;-76
2023/08/25 13:01:27;;;;;;;;;;;35.20;65.40;;;;;;7609800;19;19926;-75
2023/08/25 13:03:59;;;;;;;;;;;35.50;64.10;;;;;;7617123;19;20351;-74
2023/08/25 13:06:32;;;;;;;;;;;35.60;65.90;;;;;;7618747;19;19915;-76
2023/08/25 13:09:05;;;;;;;;;;;35.40;64.50;;;;;;7613456;19;19930;-76
2023/08/25 13:11:37;;;;;;;;;;;34.90;65.60;;;;;;7620150;19;19934;-76
2023/08/25 13:14:10;;;;;;;;;;;35.00;65.30;;;;;;7615491;19;19922;-76
2023/08/25 13:16:42;;;;;;;;;;;34.50;63.70;;;;;;7616509;19;19915;-76
2023/08/25 13:19:15;;;;;;;;;;;34.50;66.30;;;;;;7615175;19;20511;-76
2023/08/25 13:21:48;;;;;;;;;;;34.00;64.10;;;;;;7615090;19;19930;-77
2023/08/25 13:24:20;;;;;;;;;;;33.70;65.20;;;;;;7608532;19;19948;-76
2023/08/25 13:26:52;;;;;;;;;;;33.70;65.80;;;;;;7616690;19;19926;-76
2023/08/25 13:29:24;;;;;;;;;;;33.80;65.70;;;;;;7618913;19;19949;-75
2023/08/25 13:31:57;;;;;;;;;;;33.90;65.50;;;;;;7620079;19;19929;-76
2023/08/25 13:34:29;;;;;;;;;;;33.90;64.50;;;;;;7612941;19;19925;-76
2023/08/25 13:37:03;;;;;;;;;;;33.60;65.90;;;;;;7618995;19;19942;-76
2023/08/25 13:39:38;;;;;;;;;;;33.20;66.10;;;;;;7617408;19;19938;-76
2023/08/25 13:42:10;;;;;;;;;;;33.10;66.70;;;;;;7614799;19;19966;-76
2023/08/25 13:44:42;;;;;;;;;;;32.70;66.90;;;;;;7598964;19;19918;-75
2023/08/25 13:47:14;;;;;;;;;;;32.20;67.50;;;;;;7617571;19;19918;-76
2023/08/25 13:49:46;;;;;;;;;;;32.30;68.20;;;;;;7614487;19;19925;-76
2023/08/25 13:52:19;;;;;;;;;;;32.00;68.90;;;;;;7613516;19;19975;-74
2023/08/25 13:54:51;;;;;;;;;;;31.90;71.40;;;;;;7617620;19;20050;-76
2023/08/25 13:57:24;;;;;;;;;;;31.50;72.70;;;;;;7611475;19;19923;-76
2023/08/25 13:59:57;;;;;;;;;;;31.70;71.80;;;;;;7617739;19;20782;-75
2023/08/25 14:02:29;;;;;;;;;;;31.70;72.30;;;;;;7614489;19;19933;-75
2023/08/25 14:05:02;;;;;;;;;;;31.30;73.30;;;;;;7615944;19;19931;-75
2023/08/25 14:07:35;;;;;;;;;;;31.40;73.10;;;;;;7612550;19;19931;-76
2023/08/25 14:10:07;;;;;;;;;;;31.20;74.20;;;;;;7613060;19;19922;-76
2023/08/25 14:12:40;;;;;;;;;;;31.10;74.50;;;;;;7614388;19;19919;-76
2023/08/25 14:15:12;;;;;;;;;;;31.00;75.50;;;;;;7608272;19;20527;-76
2023/08/25 14:17:44;;;;;;;;;;;31.00;76.20;;;;;;7610395;19;19954;-75
2023/08/25 14:20:16;;;;;;;;;;;30.90;75.90;;;;;;7611400;19;20435;-75
2023/08/25 14:22:49;;;;;;;;;;;30.80;75.70;;;;;;7612532;19;19918;-76
2023/08/25 14:25:21;;;;;;;;;;;30.80;76.30;;;;;;7612557;19;19922;-77
2023/08/25 14:27:53;;;;;;;;;;;31.10;75.60;;;;;;7616218;19;19930;-76
2023/08/25 14:30:26;;;;;;;;;;;31.30;74.70;;;;;;7612478;19;20003;-75
2023/08/25 14:32:58;;;;;;;;;;;31.40;74.40;;;;;;7617756;19;19918;-76
2023/08/25 14:35:31;;;;;;;;;;;31.30;75.00;;;;;;7610107;19;19926;-76
2023/08/25 14:38:03;;;;;;;;;;;31.40;74.50;;;;;;7615090;19;19923;-76
2023/08/25 14:40:36;;;;;;;;;;;31.10;73.90;;;;;;7613886;19;19919;-76
2023/08/25 14:43:08;;;;;;;;;;;30.80;74.30;;;;;;7611685;19;19918;-75
2023/08/25 14:45:41;;;;;;;;;;;30.70;74.10;;;;;;7605827;19;20472;-75
2023/08/25 14:48:13;;;;;;;;;;;30.50;73.60;;;;;;7610114;19;19927;-76
2023/08/25 14:50:59;;;;;;;;;;;30.30;71.70;;;;;;7601241;19;20348;-75